sensor_id;sensor_type;location;lat;lon;timestamp;P1;durP1;ratioP1;P2;durP2;ratioP2
64678;SDS011;51094;53.864;27.676;2023-12-20T00:02:17;4.20;;;4.20;;
64678;SDS011;51094;53.864;27.676;2023-12-20T00:04:44;4.90;;;4.90;;
64678;SDS011;51094;53.864;27.676;2023-12-20T00:07:11;6.85;;;6.75;;
64678;SDS011;51094;53.864;27.676;2023-12-20T00:09:39;3.80;;;3.80;;
64678;SDS011;51094;53.864;27.676;2023-12-20T00:12:06;5.78;;;5.68;;
64678;SDS011;51094;53.864;27.676;2023-12-20T00:14:33;5.10;;;5.00;;
64678;SDS011;51094;53.864;27.676;2023-12-20T00:17:00;5.53;;;5.43;;
64678;SDS011;51094;53.864;27.676;2023-12-20T00:19:27;4.53;;;4.45;;
64678;SDS011;51094;53.864;27.676;2023-12-20T00:21:54;4.38;;;4.38;;
64678;SDS011;51094;53.864;27.676;2023-12-20T00:24:21;4.90;;;4.80;;
64678;SDS011;51094;53.864;27.676;2023-12-20T00:26:48;3.72;;;3.72;;
64678;SDS011;51094;53.864;27.676;2023-12-20T00:29:15;4.70;;;4.68;;
64678;SDS011;51094;53.864;27.676;2023-12-20T00:31:42;4.47;;;4.47;;
64678;SDS011;51094;53.864;27.676;2023-12-20T00:34:09;3.75;;;3.75;;
64678;SDS011;51094;53.864;27.676;2023-12-20T00:36:36;4.40;;;4.40;;
64678;SDS011;51094;53.864;27.676;2023-12-20T00:39:03;3.50;;;3.50;;
64678;SDS011;51094;53.864;27.676;2023-12-20T00:41:31;3.85;;;3.85;;
64678;SDS011;51094;53.864;27.676;2023-12-20T00:43:58;4.30;;;4.30;;
64678;SDS011;51094;53.864;27.676;2023-12-20T00:46:25;2.95;;;2.95;;
64678;SDS011;51094;53.864;27.676;2023-12-20T00:48:52;3.20;;;3.20;;
64678;SDS011;51094;53.864;27.676;2023-12-20T00:51:19;3.67;;;3.67;;
64678;SDS011;51094;53.864;27.676;2023-12-20T00:53:47;3.60;;;3.60;;
64678;SDS011;51094;53.864;27.676;2023-12-20T00:56:16;3.05;;;3.05;;
64678;SDS011;51094;53.864;27.676;2023-12-20T00:58:43;2.92;;;2.92;;
64678;SDS011;51094;53.864;27.676;2023-12-20T01:01:10;2.10;;;2.10;;
64678;SDS011;51094;53.864;27.676;2023-12-20T01:03:37;2.35;;;2.35;;
64678;SDS011;51094;53.864;27.676;2023-12-20T01:06:05;2.22;;;2.22;;
64678;SDS011;51094;53.864;27.676;2023-12-20T01:08:32;2.63;;;2.63;;
64678;SDS011;51094;53.864;27.676;2023-12-20T01:11:03;2.60;;;2.60;;
64678;SDS011;51094;53.864;27.676;2023-12-20T01:15:58;2.30;;;2.30;;
64678;SDS011;51094;53.864;27.676;2023-12-20T01:18:26;3.40;;;3.40;;
64678;SDS011;51094;53.864;27.676;2023-12-20T01:20:53;1.90;;;1.90;;
64678;SDS011;51094;53.864;27.676;2023-12-20T01:23:20;2.30;;;2.30;;
64678;SDS011;51094;53.864;27.676;2023-12-20T01:25:48;2.97;;;2.97;;
64678;SDS011;51094;53.864;27.676;2023-12-20T01:28:15;2.40;;;2.40;;
64678;SDS011;51094;53.864;27.676;2023-12-20T01:30:42;4.00;;;4.00;;
64678;SDS011;51094;53.864;27.676;2023-12-20T01:33:09;2.90;;;2.90;;
64678;SDS011;51094;53.864;27.676;2023-12-20T01:35:36;2.33;;;2.33;;
64678;SDS011;51094;53.864;27.676;2023-12-20T01:38:03;2.33;;;2.33;;
64678;SDS011;51094;53.864;27.676;2023-12-20T01:40:31;2.58;;;2.58;;
64678;SDS011;51094;53.864;27.676;2023-12-20T01:43:08;3.63;;;3.63;;
64678;SDS011;51094;53.864;27.676;2023-12-20T01:45:35;3.92;;;3.92;;
64678;SDS011;51094;53.864;27.676;2023-12-20T01:48:02;3.00;;;3.00;;
64678;SDS011;51094;53.864;27.676;2023-12-20T01:50:32;5.05;;;5.05;;
64678;SDS011;51094;53.864;27.676;2023-12-20T01:53:03;4.05;;;4.05;;
64678;SDS011;51094;53.864;27.676;2023-12-20T01:55:33;3.97;;;3.97;;
64678;SDS011;51094;53.864;27.676;2023-12-20T01:58:02;3.70;;;3.70;;
64678;SDS011;51094;53.864;27.676;2023-12-20T02:00:30;3.92;;;3.92;;
64678;SDS011;51094;53.864;27.676;2023-12-20T02:02:57;3.97;;;3.97;;
64678;SDS011;51094;53.864;27.676;2023-12-20T02:05:31;3.80;;;3.80;;
64678;SDS011;51094;53.864;27.676;2023-12-20T02:08:00;4.35;;;4.35;;
64678;SDS011;51094;53.864;27.676;2023-12-20T02:10:28;3.35;;;3.35;;
64678;SDS011;51094;53.864;27.676;2023-12-20T02:12:56;3.40;;;3.40;;
64678;SDS011;51094;53.864;27.676;2023-12-20T02:15:23;3.50;;;3.50;;
64678;SDS011;51094;53.864;27.676;2023-12-20T02:17:50;4.38;;;4.38;;
64678;SDS011;51094;53.864;27.676;2023-12-20T02:20:17;4.32;;;4.32;;
64678;SDS011;51094;53.864;27.676;2023-12-20T02:22:45;3.50;;;3.50;;
64678;SDS011;51094;53.864;27.676;2023-12-20T02:25:12;2.40;;;2.40;;
64678;SDS011;51094;53.864;27.676;2023-12-20T02:27:39;2.03;;;2.03;;
64678;SDS011;51094;53.864;27.676;2023-12-20T02:30:06;2.50;;;2.50;;
64678;SDS011;51094;53.864;27.676;2023-12-20T02:32:34;2.70;;;2.70;;
64678;SDS011;51094;53.864;27.676;2023-12-20T02:35:01;2.72;;;2.72;;
64678;SDS011;51094;53.864;27.676;2023-12-20T02:37:28;5.80;;;5.70;;
64678;SDS011;51094;53.864;27.676;2023-12-20T02:39:55;4.55;;;4.55;;
64678;SDS011;51094;53.864;27.676;2023-12-20T02:42:22;2.97;;;2.97;;
64678;SDS011;51094;53.864;27.676;2023-12-20T02:44:50;2.85;;;2.85;;
64678;SDS011;51094;53.864;27.676;2023-12-20T02:47:17;3.65;;;3.65;;
64678;SDS011;51094;53.864;27.676;2023-12-20T02:49:44;3.95;;;3.95;;
64678;SDS011;51094;53.864;27.676;2023-12-20T02:52:11;3.35;;;3.35;;
64678;SDS011;51094;53.864;27.676;2023-12-20T02:54:38;3.15;;;3.15;;
64678;SDS011;51094;53.864;27.676;2023-12-20T02:57:05;2.60;;;2.60;;
64678;SDS011;51094;53.864;27.676;2023-12-20T02:59:33;3.47;;;3.47;;
64678;SDS011;51094;53.864;27.676;2023-12-20T03:02:00;3.30;;;3.20;;
64678;SDS011;51094;53.864;27.676;2023-12-20T03:04:27;3.40;;;3.30;;
64678;SDS011;51094;53.864;27.676;2023-12-20T03:06:54;3.45;;;3.45;;
64678;SDS011;51094;53.864;27.676;2023-12-20T03:09:22;5.38;;;5.28;;
64678;SDS011;51094;53.864;27.676;2023-12-20T03:11:48;5.90;;;5.80;;
64678;SDS011;51094;53.864;27.676;2023-12-20T03:14:15;3.50;;;3.50;;
64678;SDS011;51094;53.864;27.676;2023-12-20T03:16:46;4.03;;;3.92;;
64678;SDS011;51094;53.864;27.676;2023-12-20T03:19:14;2.72;;;2.72;;
64678;SDS011;51094;53.864;27.676;2023-12-20T03:21:43;2.22;;;2.22;;
64678;SDS011;51094;53.864;27.676;2023-12-20T03:24:10;1.98;;;1.98;;
64678;SDS011;51094;53.864;27.676;2023-12-20T03:26:37;2.85;;;2.85;;
64678;SDS011;51094;53.864;27.676;2023-12-20T03:29:04;4.10;;;4.10;;
64678;SDS011;51094;53.864;27.676;2023-12-20T03:31:31;4.65;;;4.55;;
64678;SDS011;51094;53.864;27.676;2023-12-20T03:33:58;4.47;;;4.38;;
64678;SDS011;51094;53.864;27.676;2023-12-20T03:36:25;2.80;;;2.80;;
64678;SDS011;51094;53.864;27.676;2023-12-20T03:38:53;3.83;;;3.83;;
64678;SDS011;51094;53.864;27.676;2023-12-20T03:41:20;3.72;;;3.72;;
64678;SDS011;51094;53.864;27.676;2023-12-20T03:43:47;3.70;;;3.70;;
64678;SDS011;51094;53.864;27.676;2023-12-20T03:46:14;4.80;;;4.70;;
64678;SDS011;51094;53.864;27.676;2023-12-20T03:48:41;4.53;;;4.43;;
64678;SDS011;51094;53.864;27.676;2023-12-20T03:51:08;4.75;;;4.65;;
64678;SDS011;51094;53.864;27.676;2023-12-20T03:53:35;4.32;;;4.22;;
64678;SDS011;51094;53.864;27.676;2023-12-20T03:56:03;5.30;;;5.20;;
64678;SDS011;51094;53.864;27.676;2023-12-20T03:58:30;5.63;;;5.53;;
64678;SDS011;51094;53.864;27.676;2023-12-20T04:00:57;4.55;;;4.45;;
64678;SDS011;51094;53.864;27.676;2023-12-20T04:03:25;6.40;;;6.30;;
64678;SDS011;51094;53.864;27.676;2023-12-20T04:05:52;5.68;;;5.57;;
64678;SDS011;51094;53.864;27.676;2023-12-20T04:08:19;5.40;;;5.30;;
64678;SDS011;51094;53.864;27.676;2023-12-20T04:10:46;4.80;;;4.70;;
64678;SDS011;51094;53.864;27.676;2023-12-20T04:13:14;5.30;;;5.20;;
64678;SDS011;51094;53.864;27.676;2023-12-20T04:15:41;3.47;;;3.38;;
64678;SDS011;51094;53.864;27.676;2023-12-20T04:18:11;3.58;;;3.47;;
64678;SDS011;51094;53.864;27.676;2023-12-20T04:20:38;3.78;;;3.67;;
64678;SDS011;51094;53.864;27.676;2023-12-20T04:23:05;3.00;;;3.00;;
64678;SDS011;51094;53.864;27.676;2023-12-20T04:25:32;2.50;;;2.50;;
64678;SDS011;51094;53.864;27.676;2023-12-20T04:27:59;2.80;;;2.80;;
64678;SDS011;51094;53.864;27.676;2023-12-20T04:30:26;2.40;;;2.40;;
64678;SDS011;51094;53.864;27.676;2023-12-20T04:32:53;2.15;;;2.15;;
64678;SDS011;51094;53.864;27.676;2023-12-20T04:35:20;2.70;;;2.60;;
64678;SDS011;51094;53.864;27.676;2023-12-20T04:37:47;2.75;;;2.65;;
64678;SDS011;51094;53.864;27.676;2023-12-20T04:40:16;2.40;;;2.40;;
64678;SDS011;51094;53.864;27.676;2023-12-20T04:42:43;2.28;;;2.28;;
64678;SDS011;51094;53.864;27.676;2023-12-20T04:45:10;2.60;;;2.50;;
64678;SDS011;51094;53.864;27.676;2023-12-20T04:47:39;2.50;;;2.40;;
64678;SDS011;51094;53.864;27.676;2023-12-20T04:50:09;2.63;;;2.63;;
64678;SDS011;51094;53.864;27.676;2023-12-20T04:52:38;3.70;;;3.60;;
64678;SDS011;51094;53.864;27.676;2023-12-20T04:55:06;4.28;;;4.18;;
64678;SDS011;51094;53.864;27.676;2023-12-20T04:57:33;4.63;;;4.43;;
64678;SDS011;51094;53.864;27.676;2023-12-20T05:00:00;5.13;;;4.93;;
64678;SDS011;51094;53.864;27.676;2023-12-20T05:02:27;5.63;;;5.43;;
64678;SDS011;51094;53.864;27.676;2023-12-20T05:04:54;5.80;;;5.60;;
64678;SDS011;51094;53.864;27.676;2023-12-20T05:07:22;4.55;;;4.35;;
64678;SDS011;51094;53.864;27.676;2023-12-20T05:09:49;5.88;;;5.57;;
64678;SDS011;51094;53.864;27.676;2023-12-20T05:12:16;5.32;;;5.03;;
64678;SDS011;51094;53.864;27.676;2023-12-20T05:14:43;6.15;;;5.85;;
64678;SDS011;51094;53.864;27.676;2023-12-20T05:17:10;4.38;;;4.18;;
64678;SDS011;51094;53.864;27.676;2023-12-20T05:19:38;4.25;;;4.05;;
64678;SDS011;51094;53.864;27.676;2023-12-20T05:22:05;3.63;;;3.53;;
64678;SDS011;51094;53.864;27.676;2023-12-20T05:24:32;5.40;;;5.13;;
64678;SDS011;51094;53.864;27.676;2023-12-20T05:26:59;4.65;;;4.45;;
64678;SDS011;51094;53.864;27.676;2023-12-20T05:29:26;5.68;;;5.38;;
64678;SDS011;51094;53.864;27.676;2023-12-20T05:31:53;7.15;;;6.88;;
64678;SDS011;51094;53.864;27.676;2023-12-20T05:34:20;6.40;;;6.20;;
64678;SDS011;51094;53.864;27.676;2023-12-20T05:36:48;5.47;;;5.25;;
64678;SDS011;51094;53.864;27.676;2023-12-20T05:39:15;4.90;;;4.70;;
64678;SDS011;51094;53.864;27.676;2023-12-20T05:41:42;4.60;;;4.35;;
64678;SDS011;51094;53.864;27.676;2023-12-20T05:44:09;5.20;;;5.00;;
64678;SDS011;51094;53.864;27.676;2023-12-20T05:46:37;4.38;;;4.18;;
64678;SDS011;51094;53.864;27.676;2023-12-20T05:49:04;4.88;;;4.68;;
64678;SDS011;51094;53.864;27.676;2023-12-20T05:51:31;10.23;;;9.77;;
64678;SDS011;51094;53.864;27.676;2023-12-20T05:53:58;10.98;;;10.57;;
64678;SDS011;51094;53.864;27.676;2023-12-20T05:56:26;14.02;;;13.52;;
64678;SDS011;51094;53.864;27.676;2023-12-20T05:58:53;9.73;;;9.43;;
64678;SDS011;51094;53.864;27.676;2023-12-20T06:01:20;10.23;;;9.93;;
64678;SDS011;51094;53.864;27.676;2023-12-20T06:03:47;12.73;;;12.32;;
64678;SDS011;51094;53.864;27.676;2023-12-20T06:06:14;11.77;;;11.38;;
64678;SDS011;51094;53.864;27.676;2023-12-20T06:08:43;14.23;;;13.75;;
64678;SDS011;51094;53.864;27.676;2023-12-20T06:11:10;14.73;;;14.23;;
64678;SDS011;51094;53.864;27.676;2023-12-20T06:13:38;12.98;;;12.57;;
64678;SDS011;51094;53.864;27.676;2023-12-20T06:16:05;11.45;;;11.05;;
64678;SDS011;51094;53.864;27.676;2023-12-20T06:18:34;9.43;;;9.13;;
64678;SDS011;51094;53.864;27.676;2023-12-20T06:21:03;11.83;;;11.43;;
64678;SDS011;51094;53.864;27.676;2023-12-20T06:23:31;9.43;;;9.13;;
64678;SDS011;51094;53.864;27.676;2023-12-20T06:25:58;10.13;;;9.82;;
64678;SDS011;51094;53.864;27.676;2023-12-20T06:28:25;6.32;;;6.13;;
64678;SDS011;51094;53.864;27.676;2023-12-20T06:30:52;8.90;;;8.60;;
64678;SDS011;51094;53.864;27.676;2023-12-20T06:33:21;9.23;;;8.85;;
64678;SDS011;51094;53.864;27.676;2023-12-20T06:35:49;7.40;;;7.10;;
64678;SDS011;51094;53.864;27.676;2023-12-20T06:38:17;6.70;;;6.45;;
64678;SDS011;51094;53.864;27.676;2023-12-20T06:40:45;5.53;;;5.35;;
64678;SDS011;51094;53.864;27.676;2023-12-20T06:43:12;7.15;;;6.95;;
64678;SDS011;51094;53.864;27.676;2023-12-20T06:45:58;7.43;;;7.22;;
64678;SDS011;51094;53.864;27.676;2023-12-20T06:48:26;6.25;;;6.05;;
64678;SDS011;51094;53.864;27.676;2023-12-20T06:50:54;7.25;;;7.05;;
64678;SDS011;51094;53.864;27.676;2023-12-20T06:53:21;8.45;;;8.15;;
64678;SDS011;51094;53.864;27.676;2023-12-20T06:55:48;7.60;;;7.30;;
64678;SDS011;51094;53.864;27.676;2023-12-20T06:58:15;5.32;;;5.22;;
64678;SDS011;51094;53.864;27.676;2023-12-20T07:00:43;8.15;;;7.75;;
64678;SDS011;51094;53.864;27.676;2023-12-20T07:03:10;9.40;;;9.00;;
64678;SDS011;51094;53.864;27.676;2023-12-20T07:05:37;9.73;;;9.35;;
64678;SDS011;51094;53.864;27.676;2023-12-20T07:08:05;12.02;;;11.60;;
64678;SDS011;51094;53.864;27.676;2023-12-20T07:10:32;9.90;;;9.60;;
64678;SDS011;51094;53.864;27.676;2023-12-20T07:12:59;10.38;;;9.98;;
64678;SDS011;51094;53.864;27.676;2023-12-20T07:15:27;9.55;;;9.25;;
64678;SDS011;51094;53.864;27.676;2023-12-20T07:17:56;8.27;;;8.07;;
64678;SDS011;51094;53.864;27.676;2023-12-20T07:20:23;9.93;;;9.63;;
64678;SDS011;51094;53.864;27.676;2023-12-20T07:22:50;8.30;;;8.10;;
64678;SDS011;51094;53.864;27.676;2023-12-20T07:25:17;5.55;;;5.45;;
64678;SDS011;51094;53.864;27.676;2023-12-20T07:27:44;7.25;;;7.05;;
64678;SDS011;51094;53.864;27.676;2023-12-20T07:30:12;8.45;;;8.25;;
64678;SDS011;51094;53.864;27.676;2023-12-20T07:32:39;13.32;;;12.93;;
64678;SDS011;51094;53.864;27.676;2023-12-20T07:35:06;10.82;;;10.52;;
64678;SDS011;51094;53.864;27.676;2023-12-20T07:37:34;9.85;;;9.55;;
64678;SDS011;51094;53.864;27.676;2023-12-20T07:40:01;6.55;;;6.45;;
64678;SDS011;51094;53.864;27.676;2023-12-20T07:42:30;7.75;;;7.55;;
64678;SDS011;51094;53.864;27.676;2023-12-20T07:44:57;5.47;;;5.38;;
64678;SDS011;51094;53.864;27.676;2023-12-20T07:47:24;8.73;;;8.52;;
64678;SDS011;51094;53.864;27.676;2023-12-20T07:49:52;11.57;;;11.27;;
64678;SDS011;51094;53.864;27.676;2023-12-20T07:52:20;10.90;;;10.50;;
64678;SDS011;51094;53.864;27.676;2023-12-20T07:54:49;10.77;;;10.48;;
64678;SDS011;51094;53.864;27.676;2023-12-20T07:57:16;6.30;;;6.10;;
64678;SDS011;51094;53.864;27.676;2023-12-20T07:59:43;9.52;;;9.23;;
64678;SDS011;51094;53.864;27.676;2023-12-20T08:02:11;8.23;;;7.93;;
64678;SDS011;51094;53.864;27.676;2023-12-20T08:04:38;7.68;;;7.38;;
64678;SDS011;51094;53.864;27.676;2023-12-20T08:07:05;9.07;;;8.77;;
64678;SDS011;51094;53.864;27.676;2023-12-20T08:09:32;8.55;;;8.25;;
64678;SDS011;51094;53.864;27.676;2023-12-20T08:12:00;10.75;;;10.45;;
64678;SDS011;51094;53.864;27.676;2023-12-20T08:14:28;6.97;;;6.68;;
64678;SDS011;51094;53.864;27.676;2023-12-20T08:16:55;7.13;;;6.82;;
64678;SDS011;51094;53.864;27.676;2023-12-20T08:19:22;6.20;;;6.00;;
64678;SDS011;51094;53.864;27.676;2023-12-20T08:21:49;5.55;;;5.35;;
64678;SDS011;51094;53.864;27.676;2023-12-20T08:24:16;4.70;;;4.60;;
64678;SDS011;51094;53.864;27.676;2023-12-20T08:26:43;5.63;;;5.43;;
64678;SDS011;51094;53.864;27.676;2023-12-20T08:29:13;5.32;;;5.13;;
64678;SDS011;51094;53.864;27.676;2023-12-20T08:31:40;4.20;;;4.10;;
64678;SDS011;51094;53.864;27.676;2023-12-20T08:34:08;4.22;;;4.13;;
64678;SDS011;51094;53.864;27.676;2023-12-20T08:36:35;4.50;;;4.40;;
64678;SDS011;51094;53.864;27.676;2023-12-20T08:39:02;5.28;;;5.18;;
64678;SDS011;51094;53.864;27.676;2023-12-20T08:44:00;4.75;;;4.60;;
64678;SDS011;51094;53.864;27.676;2023-12-20T08:46:27;3.75;;;3.65;;
64678;SDS011;51094;53.864;27.676;2023-12-20T08:48:54;5.18;;;5.07;;
64678;SDS011;51094;53.864;27.676;2023-12-20T08:51:22;6.35;;;6.25;;
64678;SDS011;51094;53.864;27.676;2023-12-20T08:53:52;8.27;;;8.07;;
64678;SDS011;51094;53.864;27.676;2023-12-20T08:56:19;9.02;;;8.82;;
64678;SDS011;51094;53.864;27.676;2023-12-20T08:58:47;8.07;;;7.88;;
64678;SDS011;51094;53.864;27.676;2023-12-20T09:01:14;8.15;;;7.95;;
64678;SDS011;51094;53.864;27.676;2023-12-20T09:03:42;6.72;;;6.63;;
64678;SDS011;51094;53.864;27.676;2023-12-20T09:06:10;3.20;;;3.20;;
64678;SDS011;51094;53.864;27.676;2023-12-20T09:08:37;2.42;;;2.42;;
64678;SDS011;51094;53.864;27.676;2023-12-20T09:11:04;2.70;;;2.70;;
64678;SDS011;51094;53.864;27.676;2023-12-20T09:13:32;4.45;;;4.35;;
64678;SDS011;51094;53.864;27.676;2023-12-20T09:15:59;5.70;;;5.60;;
64678;SDS011;51094;53.864;27.676;2023-12-20T09:18:26;6.20;;;6.10;;
64678;SDS011;51094;53.864;27.676;2023-12-20T09:20:54;3.75;;;3.75;;
64678;SDS011;51094;53.864;27.676;2023-12-20T09:23:22;7.65;;;7.45;;
64678;SDS011;51094;53.864;27.676;2023-12-20T09:25:49;7.38;;;7.18;;
64678;SDS011;51094;53.864;27.676;2023-12-20T09:28:16;5.75;;;5.65;;
64678;SDS011;51094;53.864;27.676;2023-12-20T09:30:43;6.13;;;6.03;;
64678;SDS011;51094;53.864;27.676;2023-12-20T09:33:12;4.53;;;4.43;;
64678;SDS011;51094;53.864;27.676;2023-12-20T09:35:39;2.60;;;2.60;;
64678;SDS011;51094;53.864;27.676;2023-12-20T09:38:07;2.80;;;2.80;;
64678;SDS011;51094;53.864;27.676;2023-12-20T09:40:35;5.15;;;5.05;;
64678;SDS011;51094;53.864;27.676;2023-12-20T09:43:11;2.55;;;2.55;;
64678;SDS011;51094;53.864;27.676;2023-12-20T09:45:41;2.90;;;2.90;;
64678;SDS011;51094;53.864;27.676;2023-12-20T09:48:12;4.60;;;4.50;;
64678;SDS011;51094;53.864;27.676;2023-12-20T09:50:41;2.45;;;2.45;;
64678;SDS011;51094;53.864;27.676;2023-12-20T09:53:14;3.30;;;3.30;;
64678;SDS011;51094;53.864;27.676;2023-12-20T09:55:43;3.45;;;3.45;;
64678;SDS011;51094;53.864;27.676;2023-12-20T09:58:10;5.10;;;5.00;;
64678;SDS011;51094;53.864;27.676;2023-12-20T10:00:38;4.10;;;4.00;;
64678;SDS011;51094;53.864;27.676;2023-12-20T10:03:05;3.35;;;3.35;;
64678;SDS011;51094;53.864;27.676;2023-12-20T10:05:34;2.63;;;2.63;;
64678;SDS011;51094;53.864;27.676;2023-12-20T10:08:01;2.92;;;2.92;;
64678;SDS011;51094;53.864;27.676;2023-12-20T10:10:30;2.70;;;2.70;;
64678;SDS011;51094;53.864;27.676;2023-12-20T10:13:11;2.50;;;2.50;;
64678;SDS011;51094;53.864;27.676;2023-12-20T10:15:40;3.42;;;3.42;;
64678;SDS011;51094;53.864;27.676;2023-12-20T10:18:09;3.90;;;3.80;;
64678;SDS011;51094;53.864;27.676;2023-12-20T10:20:37;3.92;;;3.83;;
64678;SDS011;51094;53.864;27.676;2023-12-20T10:23:08;2.78;;;2.78;;
64678;SDS011;51094;53.864;27.676;2023-12-20T10:25:36;4.43;;;4.32;;
64678;SDS011;51094;53.864;27.676;2023-12-20T10:28:10;3.80;;;3.70;;
64678;SDS011;51094;53.864;27.676;2023-12-20T10:30:39;3.03;;;3.03;;
64678;SDS011;51094;53.864;27.676;2023-12-20T10:33:07;3.65;;;3.65;;
64678;SDS011;51094;53.864;27.676;2023-12-20T10:35:38;3.92;;;3.83;;
64678;SDS011;51094;53.864;27.676;2023-12-20T10:38:11;2.10;;;2.10;;
64678;SDS011;51094;53.864;27.676;2023-12-20T10:40:40;1.98;;;1.98;;
64678;SDS011;51094;53.864;27.676;2023-12-20T10:43:08;2.15;;;2.15;;
64678;SDS011;51094;53.864;27.676;2023-12-20T10:45:36;2.00;;;2.00;;
64678;SDS011;51094;53.864;27.676;2023-12-20T10:48:04;3.97;;;3.88;;
64678;SDS011;51094;53.864;27.676;2023-12-20T10:50:31;5.28;;;5.18;;
64678;SDS011;51094;53.864;27.676;2023-12-20T10:52:59;8.43;;;8.23;;
64678;SDS011;51094;53.864;27.676;2023-12-20T10:55:27;6.72;;;6.53;;
64678;SDS011;51094;53.864;27.676;2023-12-20T10:58:08;2.30;;;2.30;;
64678;SDS011;51094;53.864;27.676;2023-12-20T11:03:12;3.60;;;3.50;;
64678;SDS011;51094;53.864;27.676;2023-12-20T11:05:44;2.90;;;2.90;;
64678;SDS011;51094;53.864;27.676;2023-12-20T11:08:20;2.30;;;2.30;;
64678;SDS011;51094;53.864;27.676;2023-12-20T11:10:57;2.72;;;2.72;;
64678;SDS011;51094;53.864;27.676;2023-12-20T11:16:38;3.28;;;3.28;;
64678;SDS011;51094;53.864;27.676;2023-12-20T11:19:17;1.70;;;1.70;;
64678;SDS011;51094;53.864;27.676;2023-12-20T11:21:48;2.00;;;2.00;;
64678;SDS011;51094;53.864;27.676;2023-12-20T11:24:15;2.20;;;2.20;;
64678;SDS011;51094;53.864;27.676;2023-12-20T11:26:54;2.47;;;2.47;;
64678;SDS011;51094;53.864;27.676;2023-12-20T11:29:29;2.22;;;2.22;;
64678;SDS011;51094;53.864;27.676;2023-12-20T11:31:56;2.80;;;2.80;;
64678;SDS011;51094;53.864;27.676;2023-12-20T11:34:26;3.10;;;3.10;;
64678;SDS011;51094;53.864;27.676;2023-12-20T11:36:58;2.63;;;2.63;;
64678;SDS011;51094;53.864;27.676;2023-12-20T11:39:27;3.58;;;3.58;;
64678;SDS011;51094;53.864;27.676;2023-12-20T11:41:55;3.40;;;3.40;;
64678;SDS011;51094;53.864;27.676;2023-12-20T11:44:25;3.00;;;3.00;;
64678;SDS011;51094;53.864;27.676;2023-12-20T11:46:54;3.75;;;3.75;;
64678;SDS011;51094;53.864;27.676;2023-12-20T11:49:25;3.40;;;3.30;;
64678;SDS011;51094;53.864;27.676;2023-12-20T11:51:52;4.43;;;4.32;;
64678;SDS011;51094;53.864;27.676;2023-12-20T11:54:19;5.22;;;5.13;;
64678;SDS011;51094;53.864;27.676;2023-12-20T11:56:47;3.78;;;3.67;;
64678;SDS011;51094;53.864;27.676;2023-12-20T11:59:14;3.70;;;3.60;;
64678;SDS011;51094;53.864;27.676;2023-12-20T12:01:49;2.92;;;2.90;;
64678;SDS011;51094;53.864;27.676;2023-12-20T12:04:18;2.80;;;2.80;;
64678;SDS011;51094;53.864;27.676;2023-12-20T12:06:46;2.63;;;2.63;;
64678;SDS011;51094;53.864;27.676;2023-12-20T12:09:13;4.28;;;4.18;;
64678;SDS011;51094;53.864;27.676;2023-12-20T12:11:41;3.28;;;3.17;;
64678;SDS011;51094;53.864;27.676;2023-12-20T12:14:09;3.38;;;3.28;;
64678;SDS011;51094;53.864;27.676;2023-12-20T12:16:37;4.50;;;4.40;;
64678;SDS011;51094;53.864;27.676;2023-12-20T12:19:07;5.93;;;5.82;;
64678;SDS011;51094;53.864;27.676;2023-12-20T12:21:47;6.32;;;6.22;;
64678;SDS011;51094;53.864;27.676;2023-12-20T12:24:15;5.18;;;5.07;;
64678;SDS011;51094;53.864;27.676;2023-12-20T12:26:42;4.32;;;4.22;;
64678;SDS011;51094;53.864;27.676;2023-12-20T12:29:09;5.40;;;5.30;;
64678;SDS011;51094;53.864;27.676;2023-12-20T12:31:36;6.68;;;6.57;;
64678;SDS011;51094;53.864;27.676;2023-12-20T12:34:03;8.10;;;7.90;;
64678;SDS011;51094;53.864;27.676;2023-12-20T12:36:31;5.75;;;5.65;;
64678;SDS011;51094;53.864;27.676;2023-12-20T12:38:58;4.13;;;4.03;;
64678;SDS011;51094;53.864;27.676;2023-12-20T12:41:29;5.15;;;5.05;;
64678;SDS011;51094;53.864;27.676;2023-12-20T12:43:56;3.85;;;3.75;;
64678;SDS011;51094;53.864;27.676;2023-12-20T12:46:29;4.50;;;4.40;;
64678;SDS011;51094;53.864;27.676;2023-12-20T12:48:56;2.92;;;2.92;;
64678;SDS011;51094;53.864;27.676;2023-12-20T12:51:23;2.50;;;2.50;;
64678;SDS011;51094;53.864;27.676;2023-12-20T12:53:50;2.72;;;2.72;;
64678;SDS011;51094;53.864;27.676;2023-12-20T12:56:17;2.40;;;2.40;;
64678;SDS011;51094;53.864;27.676;2023-12-20T12:58:44;2.60;;;2.60;;
64678;SDS011;51094;53.864;27.676;2023-12-20T13:01:12;2.55;;;2.55;;
64678;SDS011;51094;53.864;27.676;2023-12-20T13:03:39;2.50;;;2.50;;
64678;SDS011;51094;53.864;27.676;2023-12-20T13:06:06;2.42;;;2.42;;
64678;SDS011;51094;53.864;27.676;2023-12-20T13:08:35;2.45;;;2.45;;
64678;SDS011;51094;53.864;27.676;2023-12-20T13:11:02;2.60;;;2.60;;
64678;SDS011;51094;53.864;27.676;2023-12-20T13:13:30;2.65;;;2.65;;
64678;SDS011;51094;53.864;27.676;2023-12-20T13:15:58;2.70;;;2.70;;
64678;SDS011;51094;53.864;27.676;2023-12-20T13:18:25;2.83;;;2.83;;
64678;SDS011;51094;53.864;27.676;2023-12-20T13:20:52;2.50;;;2.50;;
64678;SDS011;51094;53.864;27.676;2023-12-20T13:23:19;2.58;;;2.58;;
64678;SDS011;51094;53.864;27.676;2023-12-20T13:25:47;2.70;;;2.70;;
64678;SDS011;51094;53.864;27.676;2023-12-20T13:28:14;2.50;;;2.50;;
64678;SDS011;51094;53.864;27.676;2023-12-20T13:30:41;2.80;;;2.80;;
64678;SDS011;51094;53.864;27.676;2023-12-20T13:33:08;2.60;;;2.60;;
64678;SDS011;51094;53.864;27.676;2023-12-20T13:35:36;2.50;;;2.50;;
64678;SDS011;51094;53.864;27.676;2023-12-20T13:38:03;2.63;;;2.63;;
64678;SDS011;51094;53.864;27.676;2023-12-20T13:40:31;2.50;;;2.50;;
64678;SDS011;51094;53.864;27.676;2023-12-20T13:42:59;2.70;;;2.70;;
64678;SDS011;51094;53.864;27.676;2023-12-20T13:45:26;2.58;;;2.58;;
64678;SDS011;51094;53.864;27.676;2023-12-20T13:47:53;2.72;;;2.72;;
64678;SDS011;51094;53.864;27.676;2023-12-20T13:50:20;2.67;;;2.67;;
64678;SDS011;51094;53.864;27.676;2023-12-20T13:52:49;2.63;;;2.63;;
64678;SDS011;51094;53.864;27.676;2023-12-20T13:55:18;2.97;;;2.97;;
64678;SDS011;51094;53.864;27.676;2023-12-20T13:57:48;3.25;;;3.25;;
64678;SDS011;51094;53.864;27.676;2023-12-20T14:00:22;2.85;;;2.85;;
64678;SDS011;51094;53.864;27.676;2023-12-20T14:02:49;3.00;;;3.00;;
64678;SDS011;51094;53.864;27.676;2023-12-20T14:05:16;3.00;;;3.00;;
64678;SDS011;51094;53.864;27.676;2023-12-20T14:07:45;2.88;;;2.88;;
64678;SDS011;51094;53.864;27.676;2023-12-20T14:10:13;2.50;;;2.50;;
64678;SDS011;51094;53.864;27.676;2023-12-20T14:12:40;3.20;;;3.20;;
64678;SDS011;51094;53.864;27.676;2023-12-20T14:15:09;2.55;;;2.55;;
64678;SDS011;51094;53.864;27.676;2023-12-20T14:17:40;2.80;;;2.80;;
64678;SDS011;51094;53.864;27.676;2023-12-20T14:20:11;2.83;;;2.83;;
64678;SDS011;51094;53.864;27.676;2023-12-20T14:22:40;3.00;;;3.00;;
64678;SDS011;51094;53.864;27.676;2023-12-20T14:25:11;2.50;;;2.50;;
64678;SDS011;51094;53.864;27.676;2023-12-20T14:27:42;2.90;;;2.90;;
64678;SDS011;51094;53.864;27.676;2023-12-20T14:30:14;2.50;;;2.50;;
64678;SDS011;51094;53.864;27.676;2023-12-20T14:32:43;2.47;;;2.47;;
64678;SDS011;51094;53.864;27.676;2023-12-20T14:35:10;2.50;;;2.50;;
64678;SDS011;51094;53.864;27.676;2023-12-20T14:37:38;2.35;;;2.35;;
64678;SDS011;51094;53.864;27.676;2023-12-20T14:40:07;2.42;;;2.42;;
64678;SDS011;51094;53.864;27.676;2023-12-20T14:42:37;2.35;;;2.35;;
64678;SDS011;51094;53.864;27.676;2023-12-20T14:45:05;2.50;;;2.50;;
64678;SDS011;51094;53.864;27.676;2023-12-20T14:47:33;2.47;;;2.47;;
64678;SDS011;51094;53.864;27.676;2023-12-20T14:50:00;2.88;;;2.88;;